Memphis International Airport
KMEM : now visible

Airfield :











YOU CAN JOIN US ON...

 
LOGIN :

Register | Disclaimer

   EN    FR    IT 

 









Legend :    VFR   Marginal VFR   IFR   Intensive IFR   Very Intensive IFR
Visi :
Ceiling :
>= 8 km
>= 3000ft
5 to 8 km
1000 to 3000 ft
1500m to 5 km
500 to 1000 ft
800 to 1500m
200 to 500 ft
< 800m
< 200 ft
Symbols :   Thunderstorms  Fog  Heavy snow  Heavy precipitations  Wind > 20 kt







- Airport Elevation : 341 ft
- IATA code : MEM


KMEM - Memphis International

CURRENT METAR :
  • 201554Z 16014G22KT 10SM SCT026 BKN250 29/21 A3018 RMK AO2 SLP214 T02890211 $

EXPIRED METARs :
  • 201518Z 17014G20KT 10SM BKN026 28/22 A3016 RMK AO2 T02780217 $
  • 201454Z 18014G19KT 10SM SCT020 SCT250 28/22 A3016 RMK AO2 SLP210 T02830217 51014 $

TAF KMEM
Valid from the 20 at 15:00 until the 21 at 18:00 UTC


201453Z 2015/2118 17011KT P6SM SCT018 BKN050 BKN250
FM202100 16007KT P6SM FEW050 SCT150 BKN250
No reported NOTAMs for that airfield.



MET'MAP, your aeronautical weather chart ! - Copyright ORBIFLY December 2007 - Disclaimer

ORBIFLY MET'MAP TEAM :

Programming & Development : Alexandra Zaïnal
Concept & Development : Baudouin d'Aumeries
Co-Development & Prog : Marc-Olivier Méhu
Technical & hardware support : Manuel Goepfert

Contact : metmap@orbifly.com




SOURCES & CREDITS :

   NOAA       Earth
Advisory